sensor_id;sensor_type;location;lat;lon;timestamp;temperature;humidity
25248;DHT22;13191;47.472;11.214;2023-10-31T00:01:45;10.40;99.90
25248;DHT22;13191;47.472;11.214;2023-10-31T00:04:10;10.30;99.90
25248;DHT22;13191;47.472;11.214;2023-10-31T00:06:36;10.30;99.90
25248;DHT22;13191;47.472;11.214;2023-10-31T00:09:05;10.40;99.90
25248;DHT22;13191;47.472;11.214;2023-10-31T00:11:31;10.50;99.90
25248;DHT22;13191;47.472;11.214;2023-10-31T00:13:56;10.50;99.90
25248;DHT22;13191;47.472;11.214;2023-10-31T00:16:22;10.60;99.90
25248;DHT22;13191;47.472;11.214;2023-10-31T00:18:47;10.70;99.90
25248;DHT22;13191;47.472;11.214;2023-10-31T00:21:13;10.70;99.90
25248;DHT22;13191;47.472;11.214;2023-10-31T00:23:45;10.70;99.90
25248;DHT22;13191;47.472;11.214;2023-10-31T00:26:11;10.70;99.90
25248;DHT22;13191;47.472;11.214;2023-10-31T00:28:37;10.80;99.90
25248;DHT22;13191;47.472;11.214;2023-10-31T00:31:03;10.80;99.90
25248;DHT22;13191;47.472;11.214;2023-10-31T00:33:29;10.70;99.90
25248;DHT22;13191;47.472;11.214;2023-10-31T00:35:55;10.80;99.90
25248;DHT22;13191;47.472;11.214;2023-10-31T00:38:21;10.70;99.90
25248;DHT22;13191;47.472;11.214;2023-10-31T00:40:46;10.80;99.90
25248;DHT22;13191;47.472;11.214;2023-10-31T00:43:12;10.80;99.90
25248;DHT22;13191;47.472;11.214;2023-10-31T00:45:37;10.80;99.90
25248;DHT22;13191;47.472;11.214;2023-10-31T00:48:03;10.80;99.90
25248;DHT22;13191;47.472;11.214;2023-10-31T00:50:29;10.80;99.90
25248;DHT22;13191;47.472;11.214;2023-10-31T00:52:54;10.70;99.90
25248;DHT22;13191;47.472;11.214;2023-10-31T00:55:20;10.80;99.90
25248;DHT22;13191;47.472;11.214;2023-10-31T00:57:45;10.80;99.90
25248;DHT22;13191;47.472;11.214;2023-10-31T01:00:11;10.80;99.90
25248;DHT22;13191;47.472;11.214;2023-10-31T01:02:37;10.70;99.90
25248;DHT22;13191;47.472;11.214;2023-10-31T01:05:03;10.70;99.90
25248;DHT22;13191;47.472;11.214;2023-10-31T01:07:29;10.70;99.90
25248;DHT22;13191;47.472;11.214;2023-10-31T01:09:54;10.70;99.90
25248;DHT22;13191;47.472;11.214;2023-10-31T01:12:20;10.70;99.90
25248;DHT22;13191;47.472;11.214;2023-10-31T01:14:45;10.70;99.90
25248;DHT22;13191;47.472;11.214;2023-10-31T01:17:11;10.70;99.90
25248;DHT22;13191;47.472;11.214;2023-10-31T01:19:36;10.70;99.90
25248;DHT22;13191;47.472;11.214;2023-10-31T01:22:02;10.70;99.90
25248;DHT22;13191;47.472;11.214;2023-10-31T01:24:28;10.70;99.90
25248;DHT22;13191;47.472;11.214;2023-10-31T01:26:53;10.70;99.90
25248;DHT22;13191;47.472;11.214;2023-10-31T01:29:19;10.70;99.90
25248;DHT22;13191;47.472;11.214;2023-10-31T01:31:44;10.70;99.90
25248;DHT22;13191;47.472;11.214;2023-10-31T01:34:10;10.70;99.90
25248;DHT22;13191;47.472;11.214;2023-10-31T01:36:36;10.70;99.90
25248;DHT22;13191;47.472;11.214;2023-10-31T01:39:01;10.70;99.90
25248;DHT22;13191;47.472;11.214;2023-10-31T01:41:27;10.70;99.90
25248;DHT22;13191;47.472;11.214;2023-10-31T01:43:53;10.70;99.90
25248;DHT22;13191;47.472;11.214;2023-10-31T01:46:18;10.70;99.90
25248;DHT22;13191;47.472;11.214;2023-10-31T01:48:44;10.70;99.90
25248;DHT22;13191;47.472;11.214;2023-10-31T01:51:10;10.70;99.90
25248;DHT22;13191;47.472;11.214;2023-10-31T01:53:36;10.70;99.90
25248;DHT22;13191;47.472;11.214;2023-10-31T01:56:03;10.70;99.90
25248;DHT22;13191;47.472;11.214;2023-10-31T01:58:33;10.70;99.90
25248;DHT22;13191;47.472;11.214;2023-10-31T02:00:59;10.60;99.90
25248;DHT22;13191;47.472;11.214;2023-10-31T02:03:29;10.70;99.90
25248;DHT22;13191;47.472;11.214;2023-10-31T02:05:55;10.70;99.90
25248;DHT22;13191;47.472;11.214;2023-10-31T02:08:21;10.60;99.90
25248;DHT22;13191;47.472;11.214;2023-10-31T02:10:47;10.60;99.90
25248;DHT22;13191;47.472;11.214;2023-10-31T02:13:14;10.60;99.90
25248;DHT22;13191;47.472;11.214;2023-10-31T02:15:40;10.50;99.90
25248;DHT22;13191;47.472;11.214;2023-10-31T02:18:07;10.50;99.90
25248;DHT22;13191;47.472;11.214;2023-10-31T02:20:33;10.50;99.90
25248;DHT22;13191;47.472;11.214;2023-10-31T02:22:59;10.40;99.90
25248;DHT22;13191;47.472;11.214;2023-10-31T02:25:24;10.50;99.90
25248;DHT22;13191;47.472;11.214;2023-10-31T02:27:50;10.50;99.90
25248;DHT22;13191;47.472;11.214;2023-10-31T02:30:16;10.50;99.90
25248;DHT22;13191;47.472;11.214;2023-10-31T02:32:42;10.50;99.90
25248;DHT22;13191;47.472;11.214;2023-10-31T02:35:08;10.50;99.90
25248;DHT22;13191;47.472;11.214;2023-10-31T02:37:33;10.50;99.90
25248;DHT22;13191;47.472;11.214;2023-10-31T02:39:59;10.50;99.90
25248;DHT22;13191;47.472;11.214;2023-10-31T02:42:26;10.40;99.90
25248;DHT22;13191;47.472;11.214;2023-10-31T02:44:52;10.40;99.90
25248;DHT22;13191;47.472;11.214;2023-10-31T02:47:18;10.40;99.90
25248;DHT22;13191;47.472;11.214;2023-10-31T02:49:43;10.40;99.90
25248;DHT22;13191;47.472;11.214;2023-10-31T02:52:09;10.40;99.90
25248;DHT22;13191;47.472;11.214;2023-10-31T02:54:35;10.40;99.90
25248;DHT22;13191;47.472;11.214;2023-10-31T02:57:00;10.30;99.90
25248;DHT22;13191;47.472;11.214;2023-10-31T02:59:26;10.30;99.90
25248;DHT22;13191;47.472;11.214;2023-10-31T03:01:52;10.30;99.90
25248;DHT22;13191;47.472;11.214;2023-10-31T03:04:18;10.30;99.90
25248;DHT22;13191;47.472;11.214;2023-10-31T03:06:44;10.30;99.90
25248;DHT22;13191;47.472;11.214;2023-10-31T03:09:10;10.40;99.90
25248;DHT22;13191;47.472;11.214;2023-10-31T03:11:35;10.40;99.90
25248;DHT22;13191;47.472;11.214;2023-10-31T03:14:01;10.40;99.90
25248;DHT22;13191;47.472;11.214;2023-10-31T03:16:27;10.40;99.90
25248;DHT22;13191;47.472;11.214;2023-10-31T03:18:52;10.30;99.90
25248;DHT22;13191;47.472;11.214;2023-10-31T03:21:18;10.30;99.90
25248;DHT22;13191;47.472;11.214;2023-10-31T03:23:48;10.30;99.90
25248;DHT22;13191;47.472;11.214;2023-10-31T03:26:15;10.30;99.90
25248;DHT22;13191;47.472;11.214;2023-10-31T03:28:42;10.40;99.90
25248;DHT22;13191;47.472;11.214;2023-10-31T03:31:08;10.40;99.90
25248;DHT22;13191;47.472;11.214;2023-10-31T03:33:34;10.40;99.90
25248;DHT22;13191;47.472;11.214;2023-10-31T03:36:00;10.30;99.90
25248;DHT22;13191;47.472;11.214;2023-10-31T03:38:25;10.30;99.90
25248;DHT22;13191;47.472;11.214;2023-10-31T03:40:51;10.30;99.90
25248;DHT22;13191;47.472;11.214;2023-10-31T03:43:16;10.30;99.90
25248;DHT22;13191;47.472;11.214;2023-10-31T03:45:42;10.30;99.90
25248;DHT22;13191;47.472;11.214;2023-10-31T03:48:07;10.30;99.90
25248;DHT22;13191;47.472;11.214;2023-10-31T03:50:33;10.30;99.90
25248;DHT22;13191;47.472;11.214;2023-10-31T03:52:58;10.30;99.90
25248;DHT22;13191;47.472;11.214;2023-10-31T03:55:24;10.30;99.90
25248;DHT22;13191;47.472;11.214;2023-10-31T03:57:50;10.30;99.90
25248;DHT22;13191;47.472;11.214;2023-10-31T04:00:16;10.30;99.90
25248;DHT22;13191;47.472;11.214;2023-10-31T04:02:42;10.30;99.90
25248;DHT22;13191;47.472;11.214;2023-10-31T04:05:07;10.30;99.90
25248;DHT22;13191;47.472;11.214;2023-10-31T04:07:33;10.30;99.90
25248;DHT22;13191;47.472;11.214;2023-10-31T04:09:59;10.30;99.90
25248;DHT22;13191;47.472;11.214;2023-10-31T04:12:24;10.40;99.90
25248;DHT22;13191;47.472;11.214;2023-10-31T04:14:50;10.40;99.90
25248;DHT22;13191;47.472;11.214;2023-10-31T04:17:15;10.30;99.90
25248;DHT22;13191;47.472;11.214;2023-10-31T04:19:41;10.30;99.90
25248;DHT22;13191;47.472;11.214;2023-10-31T04:22:06;10.30;99.90
25248;DHT22;13191;47.472;11.214;2023-10-31T04:24:32;10.30;99.90
25248;DHT22;13191;47.472;11.214;2023-10-31T04:26:57;10.30;99.90
25248;DHT22;13191;47.472;11.214;2023-10-31T04:29:23;10.40;99.90
25248;DHT22;13191;47.472;11.214;2023-10-31T04:31:49;10.30;99.90
25248;DHT22;13191;47.472;11.214;2023-10-31T04:34:14;10.30;99.90
25248;DHT22;13191;47.472;11.214;2023-10-31T04:36:40;10.30;99.90
25248;DHT22;13191;47.472;11.214;2023-10-31T04:39:06;10.30;99.90
25248;DHT22;13191;47.472;11.214;2023-10-31T04:41:31;10.30;99.90
25248;DHT22;13191;47.472;11.214;2023-10-31T04:43:57;10.30;99.90
25248;DHT22;13191;47.472;11.214;2023-10-31T04:46:24;10.30;99.90
25248;DHT22;13191;47.472;11.214;2023-10-31T04:48:52;10.30;99.90
25248;DHT22;13191;47.472;11.214;2023-10-31T04:51:17;10.30;99.90
25248;DHT22;13191;47.472;11.214;2023-10-31T04:53:43;10.30;99.90
25248;DHT22;13191;47.472;11.214;2023-10-31T04:56:13;10.30;99.90
25248;DHT22;13191;47.472;11.214;2023-10-31T04:58:42;10.30;99.90
25248;DHT22;13191;47.472;11.214;2023-10-31T05:01:14;10.30;99.90
25248;DHT22;13191;47.472;11.214;2023-10-31T05:03:39;10.30;99.90
25248;DHT22;13191;47.472;11.214;2023-10-31T05:06:06;10.30;99.90
25248;DHT22;13191;47.472;11.214;2023-10-31T05:08:31;10.30;99.90
25248;DHT22;13191;47.472;11.214;2023-10-31T05:10:58;10.40;99.90
25248;DHT22;13191;47.472;11.214;2023-10-31T05:13:24;10.30;99.90
25248;DHT22;13191;47.472;11.214;2023-10-31T05:15:50;10.30;99.90
25248;DHT22;13191;47.472;11.214;2023-10-31T05:18:16;10.40;99.90
25248;DHT22;13191;47.472;11.214;2023-10-31T05:20:42;10.30;99.90
25248;DHT22;13191;47.472;11.214;2023-10-31T05:23:07;10.40;99.90
25248;DHT22;13191;47.472;11.214;2023-10-31T05:25:34;10.40;99.90
25248;DHT22;13191;47.472;11.214;2023-10-31T05:27:59;10.40;99.90
25248;DHT22;13191;47.472;11.214;2023-10-31T05:30:25;10.40;99.90
25248;DHT22;13191;47.472;11.214;2023-10-31T05:32:51;10.40;99.90
25248;DHT22;13191;47.472;11.214;2023-10-31T05:35:17;10.40;99.90
25248;DHT22;13191;47.472;11.214;2023-10-31T05:37:43;10.40;99.90
25248;DHT22;13191;47.472;11.214;2023-10-31T05:40:09;10.50;99.90
25248;DHT22;13191;47.472;11.214;2023-10-31T05:42:35;10.50;99.90
25248;DHT22;13191;47.472;11.214;2023-10-31T05:45:01;10.50;99.90
25248;DHT22;13191;47.472;11.214;2023-10-31T05:47:26;10.50;99.90
25248;DHT22;13191;47.472;11.214;2023-10-31T05:49:53;10.50;99.90
25248;DHT22;13191;47.472;11.214;2023-10-31T05:52:18;10.50;99.90
25248;DHT22;13191;47.472;11.214;2023-10-31T05:54:44;10.50;99.90
25248;DHT22;13191;47.472;11.214;2023-10-31T05:57:10;10.50;99.90
25248;DHT22;13191;47.472;11.214;2023-10-31T05:59:35;10.50;99.90
25248;DHT22;13191;47.472;11.214;2023-10-31T06:02:01;10.50;99.90
25248;DHT22;13191;47.472;11.214;2023-10-31T06:04:26;10.30;99.90
25248;DHT22;13191;47.472;11.214;2023-10-31T06:06:52;10.20;99.90
25248;DHT22;13191;47.472;11.214;2023-10-31T06:09:18;10.20;99.90
25248;DHT22;13191;47.472;11.214;2023-10-31T06:11:43;10.30;99.90
25248;DHT22;13191;47.472;11.214;2023-10-31T06:14:10;10.40;99.90
25248;DHT22;13191;47.472;11.214;2023-10-31T06:16:43;10.40;99.90
25248;DHT22;13191;47.472;11.214;2023-10-31T06:19:09;10.40;99.90
25248;DHT22;13191;47.472;11.214;2023-10-31T06:21:35;10.40;99.90
25248;DHT22;13191;47.472;11.214;2023-10-31T06:24:01;10.40;99.90
25248;DHT22;13191;47.472;11.214;2023-10-31T06:26:27;10.40;99.90
25248;DHT22;13191;47.472;11.214;2023-10-31T06:28:53;10.40;99.90
25248;DHT22;13191;47.472;11.214;2023-10-31T06:31:19;10.40;99.90
25248;DHT22;13191;47.472;11.214;2023-10-31T06:33:44;10.40;99.90
25248;DHT22;13191;47.472;11.214;2023-10-31T06:36:10;10.40;99.90
25248;DHT22;13191;47.472;11.214;2023-10-31T06:38:35;10.40;99.90
25248;DHT22;13191;47.472;11.214;2023-10-31T06:41:01;10.40;99.90
25248;DHT22;13191;47.472;11.214;2023-10-31T06:43:27;10.40;99.90
25248;DHT22;13191;47.472;11.214;2023-10-31T06:45:54;10.40;99.90
25248;DHT22;13191;47.472;11.214;2023-10-31T06:48:19;10.40;99.90
25248;DHT22;13191;47.472;11.214;2023-10-31T06:50:45;10.40;99.90
25248;DHT22;13191;47.472;11.214;2023-10-31T06:53:10;10.40;99.90
25248;DHT22;13191;47.472;11.214;2023-10-31T06:55:36;10.40;99.90
25248;DHT22;13191;47.472;11.214;2023-10-31T06:58:02;10.30;99.90
25248;DHT22;13191;47.472;11.214;2023-10-31T07:00:28;10.30;99.90
25248;DHT22;13191;47.472;11.214;2023-10-31T07:02:53;10.30;99.90
25248;DHT22;13191;47.472;11.214;2023-10-31T07:05:19;10.30;99.90
25248;DHT22;13191;47.472;11.214;2023-10-31T07:07:46;10.30;99.90
25248;DHT22;13191;47.472;11.214;2023-10-31T07:10:12;10.30;99.90
25248;DHT22;13191;47.472;11.214;2023-10-31T07:12:37;10.30;99.90
25248;DHT22;13191;47.472;11.214;2023-10-31T07:15:03;10.30;99.90
25248;DHT22;13191;47.472;11.214;2023-10-31T07:17:30;10.30;99.90
25248;DHT22;13191;47.472;11.214;2023-10-31T07:19:55;10.20;99.90
25248;DHT22;13191;47.472;11.214;2023-10-31T07:22:21;10.20;99.90
25248;DHT22;13191;47.472;11.214;2023-10-31T07:24:48;10.20;99.90
25248;DHT22;13191;47.472;11.214;2023-10-31T07:27:13;10.20;99.90
25248;DHT22;13191;47.472;11.214;2023-10-31T07:29:40;10.20;99.90
25248;DHT22;13191;47.472;11.214;2023-10-31T07:32:07;10.10;99.90
25248;DHT22;13191;47.472;11.214;2023-10-31T07:34:33;10.10;99.90
25248;DHT22;13191;47.472;11.214;2023-10-31T07:36:58;10.10;99.90
25248;DHT22;13191;47.472;11.214;2023-10-31T07:39:24;10.10;99.90
25248;DHT22;13191;47.472;11.214;2023-10-31T07:41:49;10.00;99.90
25248;DHT22;13191;47.472;11.214;2023-10-31T07:44:15;10.00;99.90
25248;DHT22;13191;47.472;11.214;2023-10-31T07:46:41;10.00;99.90
25248;DHT22;13191;47.472;11.214;2023-10-31T07:49:06;10.00;99.90
25248;DHT22;13191;47.472;11.214;2023-10-31T07:51:32;9.90;99.90
25248;DHT22;13191;47.472;11.214;2023-10-31T07:53:58;10.00;99.90
25248;DHT22;13191;47.472;11.214;2023-10-31T07:56:24;10.00;99.90
25248;DHT22;13191;47.472;11.214;2023-10-31T07:58:51;10.10;99.90
25248;DHT22;13191;47.472;11.214;2023-10-31T08:01:18;10.10;99.90
25248;DHT22;13191;47.472;11.214;2023-10-31T08:03:44;10.10;99.90
25248;DHT22;13191;47.472;11.214;2023-10-31T08:06:11;10.10;99.90
25248;DHT22;13191;47.472;11.214;2023-10-31T08:08:36;10.10;99.90
25248;DHT22;13191;47.472;11.214;2023-10-31T08:11:02;10.10;99.90
25248;DHT22;13191;47.472;11.214;2023-10-31T08:13:29;10.10;99.90
25248;DHT22;13191;47.472;11.214;2023-10-31T08:15:54;10.10;99.90
25248;DHT22;13191;47.472;11.214;2023-10-31T08:18:21;10.00;99.90
25248;DHT22;13191;47.472;11.214;2023-10-31T08:20:46;10.10;99.90
25248;DHT22;13191;47.472;11.214;2023-10-31T08:23:15;10.10;99.90
25248;DHT22;13191;47.472;11.214;2023-10-31T08:25:40;10.10;99.90
25248;DHT22;13191;47.472;11.214;2023-10-31T08:28:06;10.10;99.90
25248;DHT22;13191;47.472;11.214;2023-10-31T08:30:32;10.10;99.90
25248;DHT22;13191;47.472;11.214;2023-10-31T08:32:58;10.10;99.90
25248;DHT22;13191;47.472;11.214;2023-10-31T08:35:24;10.10;99.90
25248;DHT22;13191;47.472;11.214;2023-10-31T08:37:49;10.10;99.90
25248;DHT22;13191;47.472;11.214;2023-10-31T08:40:15;10.20;99.90
25248;DHT22;13191;47.472;11.214;2023-10-31T08:42:41;10.10;99.90
25248;DHT22;13191;47.472;11.214;2023-10-31T08:45:07;10.10;99.90
25248;DHT22;13191;47.472;11.214;2023-10-31T08:47:33;10.10;99.90
25248;DHT22;13191;47.472;11.214;2023-10-31T08:49:59;10.10;99.90
25248;DHT22;13191;47.472;11.214;2023-10-31T08:52:24;10.20;99.90
25248;DHT22;13191;47.472;11.214;2023-10-31T08:54:50;10.20;99.90
25248;DHT22;13191;47.472;11.214;2023-10-31T08:57:16;10.20;99.90
25248;DHT22;13191;47.472;11.214;2023-10-31T08:59:41;10.20;99.90
25248;DHT22;13191;47.472;11.214;2023-10-31T09:02:08;10.20;99.90
25248;DHT22;13191;47.472;11.214;2023-10-31T09:04:34;10.20;99.90
25248;DHT22;13191;47.472;11.214;2023-10-31T09:07:00;10.10;99.90
25248;DHT22;13191;47.472;11.214;2023-10-31T09:09:26;10.00;99.90
25248;DHT22;13191;47.472;11.214;2023-10-31T09:11:51;10.10;99.90
25248;DHT22;13191;47.472;11.214;2023-10-31T09:14:17;10.10;99.90
25248;DHT22;13191;47.472;11.214;2023-10-31T09:16:42;10.10;99.90
25248;DHT22;13191;47.472;11.214;2023-10-31T09:19:08;10.00;99.90
25248;DHT22;13191;47.472;11.214;2023-10-31T09:21:34;10.10;99.90
25248;DHT22;13191;47.472;11.214;2023-10-31T09:24:00;10.10;99.90
25248;DHT22;13191;47.472;11.214;2023-10-31T09:26:25;10.10;99.90
25248;DHT22;13191;47.472;11.214;2023-10-31T09:28:51;10.10;99.90
25248;DHT22;13191;47.472;11.214;2023-10-31T09:31:17;10.10;99.90
25248;DHT22;13191;47.472;11.214;2023-10-31T09:33:43;10.10;99.90
25248;DHT22;13191;47.472;11.214;2023-10-31T09:36:09;10.20;99.90
25248;DHT22;13191;47.472;11.214;2023-10-31T09:38:35;10.20;99.90
25248;DHT22;13191;47.472;11.214;2023-10-31T09:41:01;10.20;99.90
25248;DHT22;13191;47.472;11.214;2023-10-31T09:43:27;10.20;99.90
25248;DHT22;13191;47.472;11.214;2023-10-31T09:45:52;10.20;99.90
25248;DHT22;13191;47.472;11.214;2023-10-31T09:48:19;10.20;99.90
25248;DHT22;13191;47.472;11.214;2023-10-31T09:50:46;10.20;99.90
25248;DHT22;13191;47.472;11.214;2023-10-31T09:53:14;10.20;99.90
25248;DHT22;13191;47.472;11.214;2023-10-31T09:55:42;10.20;99.90
25248;DHT22;13191;47.472;11.214;2023-10-31T09:58:08;10.20;99.90
25248;DHT22;13191;47.472;11.214;2023-10-31T10:00:34;10.30;99.90
25248;DHT22;13191;47.472;11.214;2023-10-31T10:03:03;10.30;99.90
25248;DHT22;13191;47.472;11.214;2023-10-31T10:05:31;10.30;99.90
25248;DHT22;13191;47.472;11.214;2023-10-31T10:07:57;10.30;99.90
25248;DHT22;13191;47.472;11.214;2023-10-31T10:10:24;10.40;99.90
25248;DHT22;13191;47.472;11.214;2023-10-31T10:12:52;10.40;99.90
25248;DHT22;13191;47.472;11.214;2023-10-31T10:15:18;10.50;99.90
25248;DHT22;13191;47.472;11.214;2023-10-31T10:17:51;10.50;99.90
25248;DHT22;13191;47.472;11.214;2023-10-31T10:20:17;10.50;99.90
25248;DHT22;13191;47.472;11.214;2023-10-31T10:22:44;10.60;99.90
25248;DHT22;13191;47.472;11.214;2023-10-31T10:25:12;10.60;99.90
25248;DHT22;13191;47.472;11.214;2023-10-31T10:27:39;10.70;99.90
25248;DHT22;13191;47.472;11.214;2023-10-31T10:30:08;10.70;99.90
25248;DHT22;13191;47.472;11.214;2023-10-31T10:32:34;10.80;99.90
25248;DHT22;13191;47.472;11.214;2023-10-31T10:35:00;10.80;99.90
25248;DHT22;13191;47.472;11.214;2023-10-31T10:37:26;10.90;99.90
25248;DHT22;13191;47.472;11.214;2023-10-31T10:39:53;10.90;99.90
25248;DHT22;13191;47.472;11.214;2023-10-31T10:45:04;11.00;99.90
25248;DHT22;13191;47.472;11.214;2023-10-31T10:47:33;11.00;99.90
25248;DHT22;13191;47.472;11.214;2023-10-31T10:50:00;11.10;99.90
25248;DHT22;13191;47.472;11.214;2023-10-31T10:52:38;11.10;99.90
25248;DHT22;13191;47.472;11.214;2023-10-31T10:55:11;11.10;99.90
25248;DHT22;13191;47.472;11.214;2023-10-31T10:57:56;11.20;99.90
25248;DHT22;13191;47.472;11.214;2023-10-31T11:00:22;11.20;99.90
25248;DHT22;13191;47.472;11.214;2023-10-31T11:02:51;11.30;99.90
25248;DHT22;13191;47.472;11.214;2023-10-31T11:05:18;11.30;99.90
25248;DHT22;13191;47.472;11.214;2023-10-31T11:07:44;11.40;99.90
25248;DHT22;13191;47.472;11.214;2023-10-31T11:10:12;11.40;99.90
25248;DHT22;13191;47.472;11.214;2023-10-31T11:12:38;11.40;99.90
25248;DHT22;13191;47.472;11.214;2023-10-31T11:15:07;11.50;99.90
25248;DHT22;13191;47.472;11.214;2023-10-31T11:17:35;11.50;99.90
25248;DHT22;13191;47.472;11.214;2023-10-31T11:20:03;11.50;99.90
25248;DHT22;13191;47.472;11.214;2023-10-31T11:22:39;11.50;99.90
25248;DHT22;13191;47.472;11.214;2023-10-31T11:25:07;11.60;99.90
25248;DHT22;13191;47.472;11.214;2023-10-31T11:27:34;11.60;99.90
25248;DHT22;13191;47.472;11.214;2023-10-31T11:30:28;11.60;99.90
25248;DHT22;13191;47.472;11.214;2023-10-31T11:32:53;11.70;99.90
25248;DHT22;13191;47.472;11.214;2023-10-31T11:35:19;11.70;99.90
25248;DHT22;13191;47.472;11.214;2023-10-31T11:38:02;11.80;99.90
25248;DHT22;13191;47.472;11.214;2023-10-31T11:40:29;11.80;99.90
25248;DHT22;13191;47.472;11.214;2023-10-31T11:43:01;11.90;99.90
25248;DHT22;13191;47.472;11.214;2023-10-31T11:45:35;11.90;99.90
25248;DHT22;13191;47.472;11.214;2023-10-31T11:48:04;11.90;99.90
25248;DHT22;13191;47.472;11.214;2023-10-31T11:50:31;12.00;99.90
25248;DHT22;13191;47.472;11.214;2023-10-31T11:53:10;12.00;99.90
25248;DHT22;13191;47.472;11.214;2023-10-31T11:55:46;12.00;99.90
25248;DHT22;13191;47.472;11.214;2023-10-31T11:58:20;12.10;99.90
25248;DHT22;13191;47.472;11.214;2023-10-31T12:00:51;12.10;99.90
25248;DHT22;13191;47.472;11.214;2023-10-31T12:03:18;12.10;99.90
25248;DHT22;13191;47.472;11.214;2023-10-31T12:05:58;12.10;99.90
25248;DHT22;13191;47.472;11.214;2023-10-31T12:10:52;12.10;99.90
25248;DHT22;13191;47.472;11.214;2023-10-31T12:13:17;12.10;99.90
25248;DHT22;13191;47.472;11.214;2023-10-31T12:15:52;12.10;99.90
25248;DHT22;13191;47.472;11.214;2023-10-31T12:18:18;12.10;99.90
25248;DHT22;13191;47.472;11.214;2023-10-31T12:20:51;12.10;99.90
25248;DHT22;13191;47.472;11.214;2023-10-31T12:23:17;12.10;99.90
25248;DHT22;13191;47.472;11.214;2023-10-31T12:25:47;12.00;99.90
25248;DHT22;13191;47.472;11.214;2023-10-31T12:28:20;12.00;99.90
25248;DHT22;13191;47.472;11.214;2023-10-31T12:30:47;12.10;99.90
25248;DHT22;13191;47.472;11.214;2023-10-31T12:33:14;12.10;99.90
25248;DHT22;13191;47.472;11.214;2023-10-31T12:35:40;12.10;99.90
25248;DHT22;13191;47.472;11.214;2023-10-31T12:38:06;12.00;99.90
25248;DHT22;13191;47.472;11.214;2023-10-31T12:40:33;12.00;99.90
25248;DHT22;13191;47.472;11.214;2023-10-31T12:42:59;12.00;99.90
25248;DHT22;13191;47.472;11.214;2023-10-31T12:45:25;12.00;99.90
25248;DHT22;13191;47.472;11.214;2023-10-31T12:48:02;12.00;99.90
25248;DHT22;13191;47.472;11.214;2023-10-31T12:50:29;11.90;99.90
25248;DHT22;13191;47.472;11.214;2023-10-31T12:52:56;12.00;99.90
25248;DHT22;13191;47.472;11.214;2023-10-31T12:55:24;12.00;99.90
25248;DHT22;13191;47.472;11.214;2023-10-31T12:57:51;12.00;99.90
25248;DHT22;13191;47.472;11.214;2023-10-31T13:00:18;12.00;99.90
25248;DHT22;13191;47.472;11.214;2023-10-31T13:02:58;12.10;99.90
25248;DHT22;13191;47.472;11.214;2023-10-31T13:05:26;12.00;99.90
25248;DHT22;13191;47.472;11.214;2023-10-31T13:07:53;12.00;99.90
25248;DHT22;13191;47.472;11.214;2023-10-31T13:10:19;12.10;99.90
25248;DHT22;13191;47.472;11.214;2023-10-31T13:12:46;12.00;99.90
25248;DHT22;13191;47.472;11.214;2023-10-31T13:15:13;12.10;99.90
25248;DHT22;13191;47.472;11.214;2023-10-31T13:17:40;12.10;99.90
25248;DHT22;13191;47.472;11.214;2023-10-31T13:20:08;12.10;99.90
25248;DHT22;13191;47.472;11.214;2023-10-31T13:22:35;12.10;99.90
25248;DHT22;13191;47.472;11.214;2023-10-31T13:25:02;12.00;99.90
25248;DHT22;13191;47.472;11.214;2023-10-31T13:27:31;12.00;99.90
25248;DHT22;13191;47.472;11.214;2023-10-31T13:29:57;12.10;99.90
25248;DHT22;13191;47.472;11.214;2023-10-31T13:32:22;12.10;99.90
25248;DHT22;13191;47.472;11.214;2023-10-31T13:34:48;12.10;99.90
25248;DHT22;13191;47.472;11.214;2023-10-31T13:37:14;12.10;99.90
25248;DHT22;13191;47.472;11.214;2023-10-31T13:39:39;12.00;99.90
25248;DHT22;13191;47.472;11.214;2023-10-31T13:42:05;12.10;99.90
25248;DHT22;13191;47.472;11.214;2023-10-31T13:44:31;12.10;99.90
25248;DHT22;13191;47.472;11.214;2023-10-31T13:46:57;12.10;99.90
25248;DHT22;13191;47.472;11.214;2023-10-31T13:49:22;12.10;99.90
25248;DHT22;13191;47.472;11.214;2023-10-31T13:51:48;12.10;99.90
25248;DHT22;13191;47.472;11.214;2023-10-31T13:54:14;12.10;99.90
25248;DHT22;13191;47.472;11.214;2023-10-31T13:56:40;12.10;99.90
25248;DHT22;13191;47.472;11.214;2023-10-31T13:59:05;12.10;99.90
25248;DHT22;13191;47.472;11.214;2023-10-31T14:01:31;12.20;99.90
25248;DHT22;13191;47.472;11.214;2023-10-31T14:03:57;12.20;99.90
25248;DHT22;13191;47.472;11.214;2023-10-31T14:06:22;12.20;99.90
25248;DHT22;13191;47.472;11.214;2023-10-31T14:08:51;12.20;99.90
25248;DHT22;13191;47.472;11.214;2023-10-31T14:11:17;12.30;99.90
25248;DHT22;13191;47.472;11.214;2023-10-31T14:13:42;12.30;99.90
25248;DHT22;13191;47.472;11.214;2023-10-31T14:16:10;12.30;99.90
25248;DHT22;13191;47.472;11.214;2023-10-31T14:18:37;12.40;99.90
25248;DHT22;13191;47.472;11.214;2023-10-31T14:21:03;12.40;99.90
25248;DHT22;13191;47.472;11.214;2023-10-31T14:23:28;12.40;99.90
25248;DHT22;13191;47.472;11.214;2023-10-31T14:25:54;12.40;99.90
25248;DHT22;13191;47.472;11.214;2023-10-31T14:28:20;12.50;99.90
25248;DHT22;13191;47.472;11.214;2023-10-31T14:30:45;12.50;99.90
25248;DHT22;13191;47.472;11.214;2023-10-31T14:33:11;12.50;99.90
25248;DHT22;13191;47.472;11.214;2023-10-31T14:35:36;12.50;99.90
25248;DHT22;13191;47.472;11.214;2023-10-31T14:38:02;12.60;99.90
25248;DHT22;13191;47.472;11.214;2023-10-31T14:40:28;12.60;99.90
25248;DHT22;13191;47.472;11.214;2023-10-31T14:42:53;12.60;99.90
25248;DHT22;13191;47.472;11.214;2023-10-31T14:45:19;12.60;99.90
25248;DHT22;13191;47.472;11.214;2023-10-31T14:47:44;12.60;99.90
25248;DHT22;13191;47.472;11.214;2023-10-31T14:50:10;12.60;99.90
25248;DHT22;13191;47.472;11.214;2023-10-31T14:52:35;12.60;99.90
25248;DHT22;13191;47.472;11.214;2023-10-31T14:55:01;12.50;99.90
25248;DHT22;13191;47.472;11.214;2023-10-31T14:57:27;12.50;99.90
25248;DHT22;13191;47.472;11.214;2023-10-31T14:59:52;12.50;99.90
25248;DHT22;13191;47.472;11.214;2023-10-31T15:02:18;12.40;99.90
25248;DHT22;13191;47.472;11.214;2023-10-31T15:04:43;12.40;99.90
25248;DHT22;13191;47.472;11.214;2023-10-31T15:07:09;12.40;99.90
25248;DHT22;13191;47.472;11.214;2023-10-31T15:09:34;12.40;99.90
25248;DHT22;13191;47.472;11.214;2023-10-31T15:12:00;12.40;99.90
25248;DHT22;13191;47.472;11.214;2023-10-31T15:14:26;12.30;99.90
25248;DHT22;13191;47.472;11.214;2023-10-31T15:16:51;12.30;99.90